createdAt,value
2023-07-14T00:00:14.176Z,8.25
2023-07-14T00:03:01.869Z,6.72
2023-07-14T00:05:31.740Z,6.03
2023-07-14T00:07:59.512Z,6.53
2023-07-14T00:10:31.237Z,6.32
2023-07-14T00:12:59.523Z,6.50
2023-07-14T00:15:27.989Z,6.82
2023-07-14T00:17:56.280Z,7.32
2023-07-14T00:20:23.859Z,8.15
2023-07-14T00:22:52.220Z,7.50
2023-07-14T00:25:20.454Z,7.13
2023-07-14T00:27:47.790Z,7.70
2023-07-14T00:30:15.418Z,7.93
2023-07-14T00:32:43.450Z,7.93
2023-07-14T00:35:29.843Z,7.10
2023-07-14T00:37:57.963Z,6.72
2023-07-14T00:40:27.273Z,6.57
2023-07-14T00:42:55.839Z,6.13
2023-07-14T00:45:25.678Z,6.18
2023-07-14T00:47:57.866Z,6.50
2023-07-14T00:50:32.758Z,8.77
2023-07-14T00:53:02.669Z,9.30
2023-07-14T00:55:32.394Z,7.95
2023-07-14T00:57:59.747Z,7.25
2023-07-14T01:00:28.877Z,7.30
2023-07-14T01:02:56.275Z,6.55
2023-07-14T01:05:24.684Z,7.40
2023-07-14T01:07:52.345Z,7.38
2023-07-14T01:10:22.216Z,7.85
2023-07-14T01:12:52.050Z,7.60
2023-07-14T01:15:19.687Z,7.65
2023-07-14T01:17:47.548Z,8.07
2023-07-14T01:20:15.516Z,6.85
2023-07-14T01:22:42.900Z,6.93
2023-07-14T01:25:10.516Z,9.75
2023-07-14T01:27:38.084Z,8.75
2023-07-14T01:30:06.104Z,10.07
2023-07-14T01:32:43.202Z,8.10
2023-07-14T01:35:10.973Z,8.40
2023-07-14T01:37:38.445Z,9.40
2023-07-14T01:40:07.251Z,9.70
2023-07-14T01:42:34.591Z,8.75
2023-07-14T01:45:02.289Z,9.05
2023-07-14T01:47:29.941Z,9.05
2023-07-14T01:49:58.914Z,10.35
2023-07-14T01:52:29.601Z,9.82
2023-07-14T01:55:05.644Z,8.93
2023-07-14T01:57:35.100Z,8.43
2023-07-14T02:00:05.429Z,10.68
2023-07-14T02:02:36.555Z,9.05
2023-07-14T02:05:18.610Z,9.63
2023-07-14T02:07:46.230Z,11.15
2023-07-14T02:10:16.089Z,10.70
2023-07-14T02:12:43.633Z,10.90
2023-07-14T02:15:12.699Z,10.10
2023-07-14T02:17:40.323Z,13.68
2023-07-14T02:20:14.925Z,12.10
2023-07-14T02:22:42.470Z,12.57
2023-07-14T02:25:15.502Z,11.23
2023-07-14T02:27:43.065Z,10.15
2023-07-14T02:30:13.396Z,9.85
2023-07-14T02:32:42.367Z,9.25
2023-07-14T02:35:36.238Z,8.90
2023-07-14T02:38:13.334Z,9.10
2023-07-14T02:40:51.027Z,8.38
2023-07-14T02:43:19.360Z,8.55
2023-07-14T02:45:55.984Z,8.30
2023-07-14T02:48:31.934Z,8.18
2023-07-14T02:50:59.571Z,8.23
2023-07-14T02:53:26.938Z,7.82
2023-07-14T02:55:54.617Z,7.43
2023-07-14T02:58:22.486Z,8.02
2023-07-14T03:00:50.249Z,7.30
2023-07-14T03:03:20.741Z,7.82
2023-07-14T03:05:48.854Z,7.68
2023-07-14T03:08:17.253Z,6.50
2023-07-14T03:10:45.777Z,7.35
2023-07-14T03:13:14.460Z,6.95
2023-07-14T03:15:45.180Z,6.35
2023-07-14T03:18:12.711Z,6.50
2023-07-14T03:20:40.475Z,6.55
2023-07-14T03:23:07.935Z,6.25
2023-07-14T03:25:35.952Z,6.93
2023-07-14T03:28:03.670Z,5.95
2023-07-14T03:30:32.676Z,6.72
2023-07-14T03:33:00.038Z,6.75
2023-07-14T03:35:27.674Z,7.10
2023-07-14T03:37:55.015Z,6.93
2023-07-14T03:40:22.651Z,7.07
2023-07-14T03:42:50.077Z,6.65
2023-07-14T03:45:17.712Z,6.38
2023-07-14T03:47:45.125Z,7.43
2023-07-14T03:50:12.901Z,6.30
2023-07-14T03:52:40.477Z,6.85
2023-07-14T03:55:08.447Z,5.90
2023-07-14T03:57:37.081Z,5.82
2023-07-14T04:00:09.366Z,5.00
2023-07-14T04:02:36.762Z,6.30
2023-07-14T04:05:04.593Z,6.00
2023-07-14T04:07:31.915Z,5.88
2023-07-14T04:09:59.523Z,6.15
2023-07-14T04:12:26.976Z,5.07
2023-07-14T04:14:54.738Z,5.65
2023-07-14T04:17:22.059Z,5.15
2023-07-14T04:19:50.038Z,4.70
2023-07-14T04:22:18.406Z,4.32
2023-07-14T04:24:46.867Z,4.30
2023-07-14T04:27:14.347Z,4.20
2023-07-14T04:29:41.910Z,4.60
2023-07-14T04:32:09.555Z,4.05
2023-07-14T04:34:37.350Z,4.25
2023-07-14T04:37:04.693Z,4.78
2023-07-14T04:39:34.047Z,3.75
2023-07-14T04:42:01.381Z,3.67
2023-07-14T04:44:30.585Z,4.10
2023-07-14T04:47:00.109Z,4.07
2023-07-14T04:49:27.807Z,3.70
2023-07-14T04:51:55.190Z,3.88
2023-07-14T04:54:22.852Z,3.67
2023-07-14T04:56:50.512Z,4.32
2023-07-14T04:59:18.123Z,3.95
2023-07-14T05:01:45.561Z,3.47
2023-07-14T05:04:13.302Z,3.67
2023-07-14T05:06:40.826Z,3.80
2023-07-14T05:09:08.506Z,4.30
2023-07-14T05:11:35.889Z,3.80
2023-07-14T05:14:03.524Z,3.75
2023-07-14T05:16:30.918Z,4.35
2023-07-14T05:18:58.555Z,3.78
2023-07-14T05:21:25.943Z,3.80
2023-07-14T05:23:53.576Z,4.38
2023-07-14T05:26:20.927Z,3.65
2023-07-14T05:28:48.544Z,3.60
2023-07-14T05:31:15.996Z,3.70
2023-07-14T05:33:43.776Z,3.28
2023-07-14T05:36:11.317Z,3.78
2023-07-14T05:38:39.122Z,3.40
2023-07-14T05:41:06.458Z,2.80
2023-07-14T05:43:34.129Z,3.60
2023-07-14T05:46:01.576Z,2.83
2023-07-14T05:48:29.330Z,2.72
2023-07-14T05:50:56.741Z,3.13
2023-07-14T05:53:24.388Z,2.75
2023-07-14T05:55:51.769Z,2.90
2023-07-14T05:58:19.343Z,2.60
2023-07-14T06:00:46.676Z,2.50
2023-07-14T06:03:16.002Z,2.30
2023-07-14T06:05:58.720Z,1.98
2023-07-14T06:08:26.324Z,1.98
2023-07-14T06:10:53.679Z,2.85
2023-07-14T06:13:21.357Z,2.83
2023-07-14T06:15:52.215Z,2.10
2023-07-14T06:18:19.816Z,2.50
2023-07-14T06:20:47.319Z,2.00
2023-07-14T06:23:14.932Z,2.20
2023-07-14T06:25:42.286Z,1.80
2023-07-14T06:28:10.023Z,2.03
2023-07-14T06:30:37.478Z,2.00
2023-07-14T06:33:07.950Z,2.10
2023-07-14T06:35:36.526Z,1.85
2023-07-14T06:38:04.143Z,1.70
2023-07-14T06:40:31.464Z,1.80
2023-07-14T06:42:59.067Z,1.70
2023-07-14T06:45:26.414Z,2.00
2023-07-14T06:47:54.075Z,1.50
2023-07-14T06:50:21.587Z,1.85
2023-07-14T06:52:49.321Z,2.10
2023-07-14T06:55:16.776Z,1.80
2023-07-14T06:57:44.489Z,1.90
2023-07-14T07:00:12.074Z,2.00
2023-07-14T07:02:40.297Z,1.73
2023-07-14T07:05:08.746Z,1.60
2023-07-14T07:07:36.410Z,1.90
2023-07-14T07:10:03.917Z,1.95
2023-07-14T07:12:31.529Z,1.90
2023-07-14T07:14:58.848Z,2.33
2023-07-14T07:17:26.553Z,2.13
2023-07-14T07:19:53.906Z,1.90
2023-07-14T07:22:21.540Z,2.10
2023-07-14T07:24:48.872Z,2.22
2023-07-14T07:27:16.522Z,2.08
2023-07-14T07:29:43.891Z,1.80
2023-07-14T07:32:11.625Z,1.98
2023-07-14T07:34:39.041Z,2.05
2023-07-14T07:37:06.988Z,1.65
2023-07-14T07:39:34.457Z,2.47
2023-07-14T07:42:02.067Z,1.90
2023-07-14T07:44:31.646Z,2.25
2023-07-14T07:46:59.792Z,2.00
2023-07-14T07:49:27.560Z,1.73
2023-07-14T07:51:55.166Z,1.92
2023-07-14T07:54:22.554Z,2.00
2023-07-14T07:56:50.272Z,1.85
2023-07-14T07:59:17.858Z,1.88
2023-07-14T08:01:45.627Z,2.03
2023-07-14T08:04:13.431Z,2.00
2023-07-14T08:06:41.073Z,2.83
2023-07-14T08:09:09.738Z,1.92
2023-07-14T08:11:37.353Z,1.85
2023-07-14T08:14:07.665Z,1.85
2023-07-14T08:16:35.392Z,1.80
2023-07-14T08:19:02.804Z,1.75
2023-07-14T08:21:30.778Z,2.38
2023-07-14T08:23:58.176Z,1.90
2023-07-14T08:26:25.844Z,1.95
2023-07-14T08:28:53.313Z,1.90
2023-07-14T08:31:21.041Z,2.03
2023-07-14T08:33:48.508Z,1.85
2023-07-14T08:36:16.312Z,1.88
2023-07-14T08:38:43.812Z,1.90
2023-07-14T08:41:24.304Z,2.47
2023-07-14T08:44:03.854Z,2.20
2023-07-14T08:46:31.518Z,2.05
2023-07-14T08:49:04.749Z,2.33
2023-07-14T08:51:37.409Z,2.10
2023-07-14T08:54:07.488Z,2.10
2023-07-14T08:56:36.475Z,2.55
2023-07-14T08:59:04.690Z,2.40
2023-07-14T09:01:38.258Z,2.10
2023-07-14T09:04:20.069Z,2.85
2023-07-14T09:06:47.816Z,2.17
2023-07-14T09:09:16.870Z,2.30
2023-07-14T09:11:47.451Z,2.00
2023-07-14T09:14:18.005Z,1.75
2023-07-14T09:16:57.969Z,2.47
2023-07-14T09:19:34.289Z,2.00
2023-07-14T09:22:08.107Z,2.40
2023-07-14T09:24:54.079Z,2.20
2023-07-14T09:27:27.168Z,2.60
2023-07-14T09:29:55.650Z,2.47
2023-07-14T09:32:26.297Z,2.28
2023-07-14T09:34:58.099Z,1.90
2023-07-14T09:37:34.038Z,2.13
2023-07-14T09:40:20.228Z,2.40
2023-07-14T09:42:50.491Z,2.60
2023-07-14T09:45:20.514Z,2.10
2023-07-14T09:47:50.620Z,1.80
2023-07-14T09:50:18.966Z,1.90
2023-07-14T09:52:51.636Z,2.10
2023-07-14T09:55:19.044Z,1.90
2023-07-14T09:57:57.107Z,1.95
2023-07-14T10:00:39.471Z,1.88
2023-07-14T10:03:08.536Z,2.08
2023-07-14T10:05:45.814Z,1.95
2023-07-14T10:08:25.720Z,1.70
2023-07-14T10:10:54.827Z,2.10
2023-07-14T10:13:23.837Z,2.10
2023-07-14T10:15:52.849Z,1.90
2023-07-14T10:18:20.587Z,1.77
2023-07-14T10:21:03.138Z,1.80
2023-07-14T10:23:30.807Z,2.00
2023-07-14T10:25:58.152Z,1.83
2023-07-14T10:28:27.050Z,1.90
2023-07-14T10:31:17.704Z,2.10
2023-07-14T10:33:48.671Z,1.90
2023-07-14T10:36:18.561Z,1.95
2023-07-14T10:38:49.925Z,2.07
2023-07-14T10:41:20.404Z,2.00
2023-07-14T10:43:51.462Z,1.70
2023-07-14T10:46:21.469Z,1.98
2023-07-14T10:49:04.518Z,2.15
2023-07-14T10:51:35.453Z,1.80
2023-07-14T10:54:17.546Z,1.90
2023-07-14T10:56:48.156Z,1.85
2023-07-14T11:01:56.437Z,2.10
2023-07-14T11:06:54.244Z,1.85
2023-07-14T11:09:23.395Z,1.80
2023-07-14T11:11:50.672Z,1.77
2023-07-14T11:14:38.516Z,1.77
2023-07-14T11:17:11.668Z,1.65
2023-07-14T11:19:49.246Z,1.85
2023-07-14T11:22:21.744Z,1.92
2023-07-14T11:25:06.039Z,1.83
2023-07-14T11:27:36.238Z,2.00
2023-07-14T11:30:08.234Z,1.58
2023-07-14T11:32:46.992Z,1.70
2023-07-14T11:35:26.489Z,1.70
2023-07-14T11:37:53.830Z,1.95
2023-07-14T11:40:23.348Z,2.13
2023-07-14T11:42:58.631Z,1.60
2023-07-14T11:45:28.385Z,1.70
2023-07-14T11:47:57.152Z,1.50
2023-07-14T11:50:40.778Z,1.42
2023-07-14T11:53:19.318Z,2.28
2023-07-14T11:55:49.031Z,1.67
2023-07-14T11:58:22.291Z,1.58
2023-07-14T12:00:54.254Z,1.63
2023-07-14T12:03:36.300Z,1.90
2023-07-14T12:06:13.265Z,1.80
2023-07-14T12:08:41.831Z,1.77
2023-07-14T12:11:39.725Z,1.90
2023-07-14T12:14:26.662Z,1.58
2023-07-14T12:16:54.866Z,1.42
2023-07-14T12:19:42.250Z,1.40
2023-07-14T12:22:11.131Z,1.63
2023-07-14T12:24:40.091Z,1.67
2023-07-14T12:27:20.097Z,1.48
2023-07-14T12:29:57.644Z,1.70
2023-07-14T12:32:26.047Z,1.73
2023-07-14T12:34:53.420Z,1.77
2023-07-14T12:37:21.053Z,1.92
2023-07-14T12:39:52.526Z,1.58
2023-07-14T12:42:20.765Z,1.60
2023-07-14T12:44:48.502Z,1.45
2023-07-14T12:47:18.517Z,1.90
2023-07-14T12:49:47.784Z,1.75
2023-07-14T12:52:22.218Z,1.45
2023-07-14T12:54:49.520Z,1.52
2023-07-14T12:57:18.386Z,1.60
2023-07-14T12:59:50.099Z,1.45
2023-07-14T13:02:18.118Z,1.48
2023-07-14T13:04:45.914Z,1.55
2023-07-14T13:07:15.628Z,1.45
2023-07-14T13:09:43.496Z,1.75
2023-07-14T13:12:13.373Z,1.58
2023-07-14T13:14:42.569Z,1.70
2023-07-14T13:17:18.380Z,1.40
2023-07-14T13:19:46.070Z,1.50
2023-07-14T13:22:31.877Z,1.67
2023-07-14T13:25:07.331Z,2.17
2023-07-14T13:27:35.717Z,2.00
2023-07-14T13:30:18.913Z,1.50
2023-07-14T13:32:53.565Z,1.50
2023-07-14T13:35:24.290Z,1.58
2023-07-14T13:38:11.819Z,1.30
2023-07-14T13:40:40.391Z,1.30
2023-07-14T13:43:15.661Z,1.67
2023-07-14T13:45:43.004Z,1.70
2023-07-14T13:48:32.475Z,1.52
2023-07-14T13:51:00.334Z,1.50
2023-07-14T13:53:28.208Z,1.70
2023-07-14T13:55:55.670Z,1.70
2023-07-14T13:58:23.297Z,1.40
2023-07-14T14:00:50.704Z,1.65
2023-07-14T14:03:20.059Z,1.70
2023-07-14T14:05:47.434Z,1.40
2023-07-14T14:08:15.842Z,1.42
2023-07-14T14:10:43.155Z,1.63
2023-07-14T14:13:10.817Z,1.30
2023-07-14T14:15:43.664Z,1.73
2023-07-14T14:18:18.533Z,1.50
2023-07-14T14:20:46.166Z,1.40
2023-07-14T14:23:14.746Z,1.50
2023-07-14T14:25:42.254Z,1.35
2023-07-14T14:28:09.912Z,1.58
2023-07-14T14:30:39.884Z,1.75
2023-07-14T14:33:12.033Z,1.45
2023-07-14T14:35:39.669Z,1.60
2023-07-14T14:40:52.203Z,1.52
2023-07-14T14:43:21.522Z,1.40
2023-07-14T14:45:49.616Z,1.45
2023-07-14T14:48:38.302Z,1.52
2023-07-14T14:51:09.313Z,1.65
2023-07-14T14:53:37.003Z,1.60
2023-07-14T14:56:06.843Z,2.20
2023-07-14T14:58:34.690Z,1.50
2023-07-14T15:01:03.746Z,1.58
2023-07-14T15:03:31.645Z,1.60
2023-07-14T15:05:59.082Z,1.30
2023-07-14T15:08:26.694Z,1.75
2023-07-14T15:10:54.871Z,1.50
2023-07-14T15:13:24.045Z,1.40
2023-07-14T15:15:52.237Z,1.30
2023-07-14T15:18:19.902Z,1.70
2023-07-14T15:20:47.228Z,1.35
2023-07-14T15:23:16.033Z,1.90
2023-07-14T15:25:46.395Z,1.65
2023-07-14T15:28:18.359Z,1.67
2023-07-14T15:30:46.320Z,1.38
2023-07-14T15:33:14.937Z,1.55
2023-07-14T15:35:55.932Z,1.65
2023-07-14T15:38:25.286Z,1.20
2023-07-14T15:40:52.684Z,1.48
2023-07-14T15:43:22.024Z,1.50
2023-07-14T15:45:52.070Z,1.70
2023-07-14T15:48:35.582Z,1.45
2023-07-14T15:51:17.507Z,1.58
2023-07-14T15:53:45.349Z,1.60
2023-07-14T15:56:20.783Z,1.50
2023-07-14T15:58:48.930Z,1.90
2023-07-14T16:01:28.610Z,1.60
2023-07-14T16:03:57.808Z,1.80
2023-07-14T16:06:25.667Z,1.55
2023-07-14T16:08:54.176Z,2.25
2023-07-14T16:11:26.423Z,1.45
2023-07-14T16:13:54.036Z,1.50
2023-07-14T16:16:21.716Z,1.65
2023-07-14T16:18:49.410Z,1.50
2023-07-14T16:21:22.211Z,1.50
2023-07-14T16:23:50.237Z,1.80
2023-07-14T16:26:17.589Z,1.60
2023-07-14T16:28:45.540Z,1.77
2023-07-14T16:31:13.272Z,1.60
2023-07-14T16:33:41.477Z,1.45
2023-07-14T16:36:16.234Z,1.75
2023-07-14T16:38:44.013Z,1.63
2023-07-14T16:41:11.931Z,2.05
2023-07-14T16:43:39.841Z,1.45
2023-07-14T16:46:07.243Z,1.50
2023-07-14T16:48:35.049Z,1.60
2023-07-14T16:51:02.440Z,1.50
2023-07-14T16:53:30.493Z,1.83
2023-07-14T16:55:57.877Z,1.80
2023-07-14T16:58:26.085Z,1.42
2023-07-14T17:00:55.032Z,1.65
2023-07-14T17:03:29.618Z,1.58
2023-07-14T17:05:57.950Z,1.80
2023-07-14T17:08:26.811Z,2.05
2023-07-14T17:10:54.934Z,1.73
2023-07-14T17:13:26.784Z,1.70
2023-07-14T17:15:55.801Z,1.42
2023-07-14T17:18:28.077Z,1.83
2023-07-14T17:20:56.735Z,1.65
2023-07-14T17:23:30.518Z,1.40
2023-07-14T17:25:58.679Z,1.67
2023-07-14T17:28:27.008Z,2.03
2023-07-14T17:30:54.442Z,1.92
2023-07-14T17:33:23.293Z,2.05
2023-07-14T17:35:52.268Z,2.20
2023-07-14T17:38:20.031Z,1.80
2023-07-14T17:40:47.369Z,1.58
2023-07-14T17:43:18.465Z,2.00
2023-07-14T17:45:48.593Z,1.88
2023-07-14T17:48:16.430Z,2.15
2023-07-14T17:50:46.408Z,1.50
2023-07-14T17:53:21.636Z,2.10
2023-07-14T17:55:49.186Z,1.80
2023-07-14T17:58:18.573Z,2.08
2023-07-14T18:00:46.229Z,1.95
2023-07-14T18:03:31.856Z,1.77
2023-07-14T18:05:59.324Z,1.92
2023-07-14T18:08:27.752Z,1.83
2023-07-14T18:10:56.925Z,1.90
2023-07-14T18:13:27.561Z,1.70
2023-07-14T18:15:55.078Z,1.88
2023-07-14T18:18:39.772Z,1.98
2023-07-14T18:21:10.925Z,1.88
2023-07-14T18:23:38.621Z,2.00
2023-07-14T18:26:06.475Z,2.30
2023-07-14T18:28:34.153Z,2.03
2023-07-14T18:31:01.766Z,2.10
2023-07-14T18:33:30.729Z,2.00
2023-07-14T18:35:58.529Z,2.20
2023-07-14T18:38:26.482Z,1.60
2023-07-14T18:40:55.465Z,2.00
2023-07-14T18:43:25.244Z,2.30
2023-07-14T18:45:53.119Z,2.20
2023-07-14T18:48:22.013Z,2.33
2023-07-14T18:50:53.517Z,1.90
2023-07-14T18:53:22.016Z,2.60
2023-07-14T18:55:50.075Z,2.17
2023-07-14T18:58:18.620Z,2.35
2023-07-14T19:00:48.010Z,2.20
2023-07-14T19:03:24.297Z,2.50
2023-07-14T19:05:54.786Z,2.72
2023-07-14T19:08:22.157Z,2.20
2023-07-14T19:10:57.998Z,2.92
2023-07-14T19:13:26.239Z,2.80
2023-07-14T19:15:54.773Z,2.75
2023-07-14T19:18:23.580Z,2.58
2023-07-14T19:20:52.625Z,2.60
2023-07-14T19:23:20.854Z,2.95
2023-07-14T19:25:48.857Z,2.42
2023-07-14T19:28:17.859Z,2.70
2023-07-14T19:30:46.387Z,2.60
2023-07-14T19:33:23.742Z,2.42
2023-07-14T19:35:52.375Z,2.33
2023-07-14T19:38:19.765Z,2.47
2023-07-14T19:40:47.491Z,2.67
2023-07-14T19:43:18.570Z,2.30
2023-07-14T19:45:46.660Z,2.60
2023-07-14T19:48:19.085Z,2.78
2023-07-14T19:50:48.287Z,2.53
2023-07-14T19:53:29.988Z,2.33
2023-07-14T19:55:58.362Z,2.67
2023-07-14T19:58:27.135Z,2.45
2023-07-14T20:00:56.252Z,2.67
2023-07-14T20:03:25.182Z,2.47
2023-07-14T20:05:54.674Z,2.33
2023-07-14T20:08:23.774Z,2.88
2023-07-14T20:10:52.664Z,2.47
2023-07-14T20:13:22.851Z,2.40
2023-07-14T20:15:53.170Z,2.47
2023-07-14T20:18:21.725Z,2.45
2023-07-14T20:20:50.243Z,2.60
2023-07-14T20:23:20.733Z,2.95
2023-07-14T20:25:49.770Z,2.60
2023-07-14T20:28:19.106Z,3.03
2023-07-14T20:31:09.777Z,2.97
2023-07-14T20:33:37.170Z,2.67
2023-07-14T20:36:04.968Z,2.83
2023-07-14T20:38:32.341Z,2.70
2023-07-14T20:41:00.570Z,2.85
2023-07-14T20:43:29.606Z,2.95
2023-07-14T20:45:57.603Z,3.38
2023-07-14T20:48:25.865Z,3.30
2023-07-14T20:50:54.930Z,2.85
2023-07-14T20:53:26.944Z,3.10
2023-07-14T20:55:56.318Z,3.00
2023-07-14T20:58:27.050Z,2.88
2023-07-14T21:00:55.206Z,3.23
2023-07-14T21:03:33.713Z,3.10
2023-07-14T21:06:02.406Z,3.15
2023-07-14T21:08:34.488Z,2.83
2023-07-14T21:11:08.183Z,2.90
2023-07-14T21:13:36.716Z,3.03
2023-07-14T21:16:04.460Z,2.83
2023-07-14T21:18:32.665Z,3.80
2023-07-14T21:21:01.563Z,2.95
2023-07-14T21:23:34.680Z,2.92
2023-07-14T21:26:06.362Z,3.58
2023-07-14T21:28:34.494Z,2.80
2023-07-14T21:31:03.512Z,3.53
2023-07-14T21:33:35.574Z,3.25
2023-07-14T21:36:03.951Z,3.30
2023-07-14T21:38:31.915Z,3.28
2023-07-14T21:41:03.435Z,3.00
2023-07-14T21:43:34.107Z,3.10
2023-07-14T21:46:02.170Z,3.10
2023-07-14T21:48:29.826Z,3.60
2023-07-14T21:51:07.092Z,3.25
2023-07-14T21:53:35.527Z,3.58
2023-07-14T21:56:04.269Z,3.53
2023-07-14T21:58:32.635Z,3.17
2023-07-14T22:01:01.364Z,3.30
2023-07-14T22:03:29.157Z,3.65
2023-07-14T22:05:57.070Z,3.50
2023-07-14T22:08:27.767Z,3.28
2023-07-14T22:10:56.400Z,3.50
2023-07-14T22:13:23.718Z,3.50
2023-07-14T22:15:51.814Z,3.38
2023-07-14T22:18:32.041Z,3.08
2023-07-14T22:21:17.599Z,3.60
2023-07-14T22:23:45.237Z,3.88
2023-07-14T22:26:14.711Z,3.55
2023-07-14T22:28:42.516Z,3.38
2023-07-14T22:31:14.153Z,3.42
2023-07-14T22:33:41.552Z,3.58
2023-07-14T22:36:10.391Z,3.17
2023-07-14T22:38:37.923Z,3.55
2023-07-14T22:41:08.532Z,3.13
2023-07-14T22:43:36.344Z,3.38
2023-07-14T22:46:04.233Z,3.40
2023-07-14T22:48:31.652Z,3.50
2023-07-14T22:51:01.236Z,3.90
2023-07-14T22:53:29.608Z,3.53
2023-07-14T22:55:57.824Z,3.33
2023-07-14T22:58:26.119Z,3.45
2023-07-14T23:00:58.118Z,3.88
2023-07-14T23:03:26.693Z,3.33
2023-07-14T23:05:55.645Z,3.90
2023-07-14T23:08:22.983Z,3.50
2023-07-14T23:10:52.498Z,3.30
2023-07-14T23:13:24.583Z,3.50
2023-07-14T23:15:52.210Z,3.95
2023-07-14T23:18:19.582Z,4.15
2023-07-14T23:20:47.705Z,3.70
2023-07-14T23:23:16.362Z,4.13
2023-07-14T23:25:44.152Z,3.78
2023-07-14T23:28:11.499Z,3.50
2023-07-14T23:30:39.734Z,3.80
2023-07-14T23:33:13.689Z,3.67
2023-07-14T23:35:45.463Z,3.75
2023-07-14T23:38:13.891Z,4.07
2023-07-14T23:40:41.739Z,3.90
2023-07-14T23:43:16.612Z,3.85
2023-07-14T23:45:45.228Z,3.65
2023-07-14T23:48:13.172Z,3.60
2023-07-14T23:50:41.800Z,4.13
2023-07-14T23:53:18.238Z,3.95
2023-07-14T23:55:45.916Z,3.80
2023-07-14T23:58:13.243Z,3.67
